Time;durP1;ratioP1;P1;durP2;ratioP2;P2;SDS_P1;SDS_P2;PMS_P1;PMS_P2;Temp;Humidity;BMP_temperature;BMP_pressure;BME280_temperature;BME280_humidity;BME280_pressure;Samples;Min_cycle;Max_cycle;Signal;HPM_P1;HPM_P2
2022/11/17 00:01:56;;;;;;;5.73;5.10;;;;;;;;;;4997657;28;20549;-78
2022/11/17 00:04:24;;;;;;;5.50;4.93;;;;;;;;;;4998156;28;20627;-78
2022/11/17 00:06:50;;;;;;;6.73;4.90;;;;;;;;;;4998380;28;20217;-78
2022/11/17 00:09:19;;;;;;;6.07;5.33;;;;;;;;;;5009949;28;20609;-78
2022/11/17 00:14:35;;;;;;;5.80;4.73;;;;;;;;;;5010934;28;20202;-78
2022/11/17 00:17:05;;;;;;;5.67;4.87;;;;;;;;;;4997408;28;20218;-78
2022/11/17 00:22:16;;;;;;;4.63;4.20;;;;;;;;;;5010041;28;20356;-78
2022/11/17 00:24:42;;;;;;;5.23;4.60;;;;;;;;;;4997448;28;20189;-78
2022/11/17 00:27:08;;;;;;;4.40;4.00;;;;;;;;;;4993287;28;20594;-78
2022/11/17 00:29:34;;;;;;;5.67;4.07;;;;;;;;;;4994000;28;20187;-78
2022/11/17 00:34:45;;;;;;;4.13;3.73;;;;;;;;;;5009810;28;20198;-78
2022/11/17 00:37:11;;;;;;;4.10;3.70;;;;;;;;;;5009944;28;20191;-77
2022/11/17 00:39:37;;;;;;;4.80;4.10;;;;;;;;;;5010606;28;20179;-78
2022/11/17 00:42:04;;;;;;;4.40;4.00;;;;;;;;;;5010450;28;20174;-78
2022/11/17 00:44:30;;;;;;;4.37;3.97;;;;;;;;;;5007825;28;20191;-78
2022/11/17 00:46:56;;;;;;;6.00;3.70;;;;;;;;;;5010090;28;20193;-78
2022/11/17 00:49:25;;;;;;;5.33;3.93;;;;;;;;;;5000001;28;20211;-78
2022/11/17 00:51:52;;;;;;;4.60;4.00;;;;;;;;;;5011026;28;20180;-78
2022/11/17 00:54:18;;;;;;;3.83;3.53;;;;;;;;;;5008822;28;20179;-77
2022/11/17 00:56:44;;;;;;;3.63;3.30;;;;;;;;;;4995602;28;20349;-78
2022/11/17 00:59:10;;;;;;;3.87;3.57;;;;;;;;;;4997370;28;20183;-78
2022/11/17 01:01:37;;;;;;;4.50;3.77;;;;;;;;;;5009355;28;20215;-77
2022/11/17 01:04:03;;;;;;;4.83;4.23;;;;;;;;;;5011352;28;20203;-78
2022/11/17 01:06:34;;;;;;;4.03;3.63;;;;;;;;;;5009049;28;20179;-78
2022/11/17 01:09:02;;;;;;;5.43;3.60;;;;;;;;;;5007951;28;20454;-78
2022/11/17 01:11:28;;;;;;;4.00;3.70;;;;;;;;;;5008422;28;20187;-78
2022/11/17 01:13:56;;;;;;;3.90;3.60;;;;;;;;;;4996846;28;20187;-78
2022/11/17 01:16:22;;;;;;;3.90;3.50;;;;;;;;;;4997282;28;20198;-78
2022/11/17 01:18:50;;;;;;;4.10;3.70;;;;;;;;;;5010904;28;20313;-78
2022/11/17 01:21:20;;;;;;;4.23;3.93;;;;;;;;;;4994253;28;20314;-78
2022/11/17 01:23:47;;;;;;;3.80;3.50;;;;;;;;;;4987541;28;20231;-78
2022/11/17 01:26:20;;;;;;;4.10;3.50;;;;;;;;;;4995995;28;20190;-78
2022/11/17 01:28:46;;;;;;;3.20;3.00;;;;;;;;;;5010176;28;20183;-78
2022/11/17 01:31:36;;;;;;;3.83;3.17;;;;;;;;;;5012181;28;20175;-79
2022/11/17 01:34:02;;;;;;;3.27;2.97;;;;;;;;;;4999407;28;20202;-78
2022/11/17 01:36:29;;;;;;;3.80;3.43;;;;;;;;;;4995522;28;20362;-78
2022/11/17 01:38:55;;;;;;;6.00;3.60;;;;;;;;;;4994630;28;20536;-78
2022/11/17 01:41:23;;;;;;;4.67;3.53;;;;;;;;;;5008853;28;20184;-78
2022/11/17 01:43:50;;;;;;;5.10;3.10;;;;;;;;;;5010378;28;20183;-78
2022/11/17 01:46:36;;;;;;;4.03;3.63;;;;;;;;;;5003264;28;20599;-78
2022/11/17 01:49:03;;;;;;;4.00;3.60;;;;;;;;;;4999414;28;20175;-78
2022/11/17 01:51:30;;;;;;;3.43;3.13;;;;;;;;;;5008652;28;20237;-78
2022/11/17 01:53:56;;;;;;;4.13;3.43;;;;;;;;;;4995719;28;20270;-78
2022/11/17 01:56:26;;;;;;;3.80;3.50;;;;;;;;;;5008580;28;20211;-78
2022/11/17 01:59:02;;;;;;;3.80;3.40;;;;;;;;;;4990483;28;20194;-78
2022/11/17 02:01:28;;;;;;;3.80;3.50;;;;;;;;;;5009077;28;20175;-78
2022/11/17 02:03:54;;;;;;;3.63;3.33;;;;;;;;;;5010634;28;20307;-78
2022/11/17 02:06:27;;;;;;;11.20;3.67;;;;;;;;;;5008823;28;20179;-78
2022/11/17 02:08:53;;;;;;;3.93;3.53;;;;;;;;;;5010451;28;20213;-78
2022/11/17 02:11:20;;;;;;;3.47;3.17;;;;;;;;;;5009713;28;20178;-78
2022/11/17 02:13:46;;;;;;;4.70;3.80;;;;;;;;;;5008644;28;20195;-78
2022/11/17 02:16:13;;;;;;;4.23;3.83;;;;;;;;;;4993824;28;20200;-77
2022/11/17 02:18:40;;;;;;;5.67;3.40;;;;;;;;;;5010961;28;20211;-78
2022/11/17 02:21:15;;;;;;;4.27;3.70;;;;;;;;;;5003194;28;20257;-78
2022/11/17 02:24:00;;;;;;;4.73;3.97;;;;;;;;;;5010772;28;20182;-78
2022/11/17 02:26:26;;;;;;;3.93;3.53;;;;;;;;;;5009977;28;20210;-77
2022/11/17 02:29:00;;;;;;;4.50;4.10;;;;;;;;;;5006986;28;20180;-77
2022/11/17 02:31:33;;;;;;;3.90;3.50;;;;;;;;;;5010098;28;20180;-78
2022/11/17 02:34:07;;;;;;;4.07;3.70;;;;;;;;;;4994954;28;20176;-78
2022/11/17 02:36:45;;;;;;;4.93;3.63;;;;;;;;;;5002582;28;20778;-78
2022/11/17 02:39:11;;;;;;;4.60;4.20;;;;;;;;;;4988966;28;20190;-78
2022/11/17 02:41:43;;;;;;;5.80;4.07;;;;;;;;;;4986552;28;20186;-78
2022/11/17 02:44:16;;;;;;;5.20;3.77;;;;;;;;;;4997761;28;20179;-78
2022/11/17 02:46:46;;;;;;;4.43;4.03;;;;;;;;;;4992854;28;20198;-78
2022/11/17 02:49:18;;;;;;;4.37;3.90;;;;;;;;;;5013105;28;20178;-78
2022/11/17 02:51:45;;;;;;;5.23;4.00;;;;;;;;;;4991382;28;20183;-78
2022/11/17 02:54:12;;;;;;;4.10;3.70;;;;;;;;;;4995887;28;20182;-78
2022/11/17 02:56:42;;;;;;;3.83;3.47;;;;;;;;;;4992943;28;20243;-78
2022/11/17 02:59:08;;;;;;;4.30;3.90;;;;;;;;;;5002200;28;20186;-78
2022/11/17 03:01:34;;;;;;;4.20;3.80;;;;;;;;;;4996345;28;21419;-78
2022/11/17 03:04:09;;;;;;;4.30;3.90;;;;;;;;;;5014482;28;20176;-77
2022/11/17 03:06:44;;;;;;;4.03;3.63;;;;;;;;;;5003643;28;20226;-77
2022/11/17 03:09:20;;;;;;;3.67;3.37;;;;;;;;;;5006521;28;20193;-78
2022/11/17 03:11:52;;;;;;;4.50;4.10;;;;;;;;;;5009709;28;20187;-78
2022/11/17 03:14:31;;;;;;;4.37;3.73;;;;;;;;;;5001343;28;20190;-78
2022/11/17 03:17:04;;;;;;;4.37;3.97;;;;;;;;;;4999085;28;20214;-77
2022/11/17 03:19:30;;;;;;;4.43;4.03;;;;;;;;;;4997755;28;20629;-78
2022/11/17 03:22:05;;;;;;;6.33;4.00;;;;;;;;;;5014101;28;20227;-78
2022/11/17 03:24:47;;;;;;;4.40;4.00;;;;;;;;;;5013002;28;20186;-78
2022/11/17 03:27:33;;;;;;;4.43;4.03;;;;;;;;;;4992257;28;20194;-78
2022/11/17 03:30:01;;;;;;;4.63;3.90;;;;;;;;;;4995019;28;20305;-78
2022/11/17 03:32:30;;;;;;;4.00;3.60;;;;;;;;;;5011999;28;20204;-78
2022/11/17 03:34:57;;;;;;;4.87;3.67;;;;;;;;;;4997368;28;20624;-78
2022/11/17 03:37:26;;;;;;;4.30;3.90;;;;;;;;;;4997830;28;20267;-78
2022/11/17 03:39:57;;;;;;;4.40;3.70;;;;;;;;;;5013321;28;20183;-78
2022/11/17 03:42:25;;;;;;;4.37;3.60;;;;;;;;;;4998118;28;20187;-78
2022/11/17 03:44:56;;;;;;;4.73;4.13;;;;;;;;;;5002060;28;20230;-78
2022/11/17 03:47:24;;;;;;;4.83;3.93;;;;;;;;;;4999767;28;20985;-78
2022/11/17 03:49:57;;;;;;;4.53;4.13;;;;;;;;;;5006003;28;20563;-78
2022/11/17 03:52:24;;;;;;;4.67;3.90;;;;;;;;;;5013159;28;20182;-77
2022/11/17 03:54:50;;;;;;;4.30;3.90;;;;;;;;;;5013059;28;20179;-78
2022/11/17 03:57:39;;;;;;;4.73;4.20;;;;;;;;;;5001370;28;20210;-78
2022/11/17 04:00:10;;;;;;;4.20;3.70;;;;;;;;;;5001462;28;20187;-78
2022/11/17 04:02:36;;;;;;;4.20;3.80;;;;;;;;;;5004342;28;20655;-78
2022/11/17 04:05:05;;;;;;;4.73;4.33;;;;;;;;;;5006922;28;20651;-78
2022/11/17 04:07:35;;;;;;;5.10;4.37;;;;;;;;;;5009072;28;20183;-78
2022/11/17 04:10:01;;;;;;;5.03;4.07;;;;;;;;;;5012044;28;20571;-77
2022/11/17 04:18:17;;;;;;;4.40;4.00;;;;;;;;;;4959233;28;20274;-77
2022/11/17 04:20:43;;;;;;;4.53;3.90;;;;;;;;;;4960390;28;20184;-77
2022/11/17 04:23:12;;;;;;;4.63;4.13;;;;;;;;;;4958280;28;20193;-77
2022/11/17 04:28:36;;;;;;;4.20;3.80;;;;;;;;;;4968781;28;20756;-77
2022/11/17 04:31:02;;;;;;;5.10;4.40;;;;;;;;;;4956240;28;20176;-77
2022/11/17 04:33:30;;;;;;;4.63;4.23;;;;;;;;;;4954371;28;20267;-78
2022/11/17 04:35:56;;;;;;;4.53;3.93;;;;;;;;;;4956711;28;20697;-77
2022/11/17 04:38:22;;;;;;;4.50;3.93;;;;;;;;;;4971230;28;20196;-76
2022/11/17 04:43:33;;;;;;;3.97;3.63;;;;;;;;;;4968399;28;20238;-77
2022/11/17 04:45:59;;;;;;;4.33;3.93;;;;;;;;;;4959566;28;20282;-77
2022/11/17 04:48:26;;;;;;;7.80;4.30;;;;;;;;;;4962992;28;20191;-77
2022/11/17 04:50:55;;;;;;;4.17;3.67;;;;;;;;;;5013532;28;20226;-77
2022/11/17 04:53:22;;;;;;;6.97;3.83;;;;;;;;;;5015602;28;20231;-77
2022/11/17 04:55:48;;;;;;;4.20;3.80;;;;;;;;;;5010520;28;20190;-77
2022/11/17 04:58:14;;;;;;;4.33;3.53;;;;;;;;;;5012007;28;20203;-77
2022/11/17 05:00:40;;;;;;;4.67;4.27;;;;;;;;;;5011467;28;20197;-77
2022/11/17 05:03:06;;;;;;;5.27;3.87;;;;;;;;;;5008017;28;20183;-77
2022/11/17 05:05:32;;;;;;;4.13;3.60;;;;;;;;;;5010808;28;20214;-77
2022/11/17 05:07:58;;;;;;;4.30;3.90;;;;;;;;;;4996328;28;20246;-77
2022/11/17 05:13:23;;;;;;;5.23;4.20;;;;;;;;;;4994630;28;20187;-78
2022/11/17 05:18:38;;;;;;;4.27;3.83;;;;;;;;;;4999981;28;20615;-77
2022/11/17 05:21:05;;;;;;;4.53;3.87;;;;;;;;;;5005029;28;20356;-77
2022/11/17 05:26:16;;;;;;;3.87;3.47;;;;;;;;;;5011039;28;20182;-76
2022/11/17 05:28:43;;;;;;;4.07;3.73;;;;;;;;;;5009739;28;20185;-77
2022/11/17 05:31:09;;;;;;;3.60;3.30;;;;;;;;;;5009682;28;20175;-77
2022/11/17 05:33:35;;;;;;;4.30;3.60;;;;;;;;;;5009007;28;20175;-78
2022/11/17 05:36:01;;;;;;;4.83;3.67;;;;;;;;;;5004062;28;20180;-77
2022/11/17 05:38:27;;;;;;;4.27;3.50;;;;;;;;;;4998352;28;20183;-78
2022/11/17 05:40:53;;;;;;;3.80;3.40;;;;;;;;;;5010231;28;20186;-77
2022/11/17 05:43:19;;;;;;;3.90;3.50;;;;;;;;;;4995202;28;20179;-78
2022/11/17 05:45:45;;;;;;;3.67;3.33;;;;;;;;;;4996268;28;20184;-78
2022/11/17 05:48:11;;;;;;;4.13;3.47;;;;;;;;;;5000540;28;20191;-78
2022/11/17 05:50:37;;;;;;;5.27;3.60;;;;;;;;;;5010920;28;20198;-78
2022/11/17 05:53:03;;;;;;;4.00;3.60;;;;;;;;;;5009212;28;20257;-78
2022/11/17 05:55:30;;;;;;;4.03;3.13;;;;;;;;;;5009668;28;20182;-77
2022/11/17 05:57:58;;;;;;;4.27;3.87;;;;;;;;;;5009782;28;20221;-77
2022/11/17 06:00:24;;;;;;;4.10;3.60;;;;;;;;;;4998404;28;20184;-78
2022/11/17 06:02:53;;;;;;;4.07;3.67;;;;;;;;;;4998786;28;20191;-78
2022/11/17 06:05:19;;;;;;;4.53;3.83;;;;;;;;;;5006065;28;20699;-78
2022/11/17 06:07:45;;;;;;;3.70;3.40;;;;;;;;;;5009131;28;20600;-78
2022/11/17 06:10:11;;;;;;;5.57;3.63;;;;;;;;;;5007184;28;20186;-78
2022/11/17 06:12:37;;;;;;;3.97;3.40;;;;;;;;;;4998380;28;20215;-78
2022/11/17 06:15:04;;;;;;;3.87;3.37;;;;;;;;;;5005173;28;20233;-78
2022/11/17 06:17:34;;;;;;;4.10;3.30;;;;;;;;;;5006474;28;20348;-78
2022/11/17 06:20:02;;;;;;;3.70;3.40;;;;;;;;;;5010565;28;20197;-77
2022/11/17 06:22:29;;;;;;;3.87;3.57;;;;;;;;;;5001327;28;20699;-78
2022/11/17 06:24:55;;;;;;;4.07;3.00;;;;;;;;;;4994867;28;20191;-77
2022/11/17 06:27:21;;;;;;;5.03;3.57;;;;;;;;;;4996407;28;20188;-77
2022/11/17 06:29:48;;;;;;;4.47;4.07;;;;;;;;;;5005015;28;20211;-77
2022/11/17 06:32:15;;;;;;;10.50;7.20;;;;;;;;;;5006792;28;20214;-77
2022/11/17 06:34:42;;;;;;;8.23;6.83;;;;;;;;;;4997522;28;20190;-76
2022/11/17 06:37:10;;;;;;;10.00;6.87;;;;;;;;;;5010971;28;20660;-77
2022/11/17 06:39:36;;;;;;;6.43;5.17;;;;;;;;;;4999100;28;20230;-77
2022/11/17 06:42:02;;;;;;;4.43;4.03;;;;;;;;;;5003038;28;20186;-77
2022/11/17 06:44:29;;;;;;;3.70;3.33;;;;;;;;;;4991799;28;20241;-76
2022/11/17 06:46:55;;;;;;;5.93;4.37;;;;;;;;;;4994884;28;20525;-76
2022/11/17 06:49:21;;;;;;;7.43;4.83;;;;;;;;;;5010734;28;20230;-77
2022/11/17 06:51:47;;;;;;;6.67;4.03;;;;;;;;;;5009180;28;20187;-77
2022/11/17 06:54:13;;;;;;;6.27;5.23;;;;;;;;;;4986976;28;20550;-76
2022/11/17 06:56:39;;;;;;;4.20;3.80;;;;;;;;;;4999414;28;20214;-76
2022/11/17 06:59:05;;;;;;;7.63;4.00;;;;;;;;;;4993744;28;20233;-77
2022/11/17 07:01:31;;;;;;;4.50;4.10;;;;;;;;;;5006905;28;20179;-77
2022/11/17 07:03:57;;;;;;;5.63;3.87;;;;;;;;;;4999404;28;20279;-76
2022/11/17 07:06:23;;;;;;;4.20;3.50;;;;;;;;;;5027008;28;20178;-76
2022/11/17 07:08:49;;;;;;;5.07;3.60;;;;;;;;;;5026557;28;20707;-77
2022/11/17 07:11:16;;;;;;;3.20;2.90;;;;;;;;;;5018666;28;20175;-77
2022/11/17 07:13:43;;;;;;;5.47;3.10;;;;;;;;;;5019225;28;20168;-78
2022/11/17 07:16:14;;;;;;;3.13;2.93;;;;;;;;;;5032238;28;20195;-77
2022/11/17 07:18:41;;;;;;;3.37;3.07;;;;;;;;;;5022527;28;20180;-78
2022/11/17 07:21:09;;;;;;;3.43;3.07;;;;;;;;;;5021253;28;20214;-77
2022/11/17 07:23:35;;;;;;;3.90;3.40;;;;;;;;;;5033021;28;20198;-77
2022/11/17 07:26:02;;;;;;;3.80;3.40;;;;;;;;;;5015232;28;20282;-78
2022/11/17 07:28:28;;;;;;;3.47;3.17;;;;;;;;;;5034205;28;20186;-77
2022/11/17 07:30:54;;;;;;;4.67;3.73;;;;;;;;;;5029707;28;20239;-77
2022/11/17 07:33:21;;;;;;;3.83;3.53;;;;;;;;;;5031943;28;20185;-76
2022/11/17 07:35:47;;;;;;;3.50;3.20;;;;;;;;;;5023522;28;20195;-77
2022/11/17 07:38:14;;;;;;;5.70;3.60;;;;;;;;;;5008579;28;20756;-78
2022/11/17 07:40:40;;;;;;;4.80;4.40;;;;;;;;;;5030458;28;20177;-78
2022/11/17 07:43:07;;;;;;;4.30;3.90;;;;;;;;;;5018698;28;20311;-78
2022/11/17 07:45:33;;;;;;;4.53;3.90;;;;;;;;;;5003028;28;20188;-78
2022/11/17 07:47:59;;;;;;;5.83;4.83;;;;;;;;;;5004376;28;20265;-78
2022/11/17 07:50:26;;;;;;;4.97;4.17;;;;;;;;;;5002609;28;20179;-78
2022/11/17 07:52:53;;;;;;;5.30;4.77;;;;;;;;;;5011648;28;20186;-78
2022/11/17 07:55:19;;;;;;;5.63;4.60;;;;;;;;;;5012768;28;20182;-78
2022/11/17 07:57:45;;;;;;;5.03;4.53;;;;;;;;;;5006704;28;20215;-78
2022/11/17 08:00:12;;;;;;;6.20;5.50;;;;;;;;;;5002428;28;20266;-78
2022/11/17 08:02:39;;;;;;;6.77;5.60;;;;;;;;;;5001910;28;20195;-78
2022/11/17 08:05:05;;;;;;;5.80;5.20;;;;;;;;;;5014972;28;20179;-78
2022/11/17 08:07:31;;;;;;;6.30;5.37;;;;;;;;;;5015024;28;20182;-78
2022/11/17 08:09:57;;;;;;;5.10;4.60;;;;;;;;;;5001843;28;20279;-79
2022/11/17 08:12:23;;;;;;;6.13;4.73;;;;;;;;;;5007679;28;20274;-77
2022/11/17 08:14:49;;;;;;;5.87;5.27;;;;;;;;;;5010776;28;20275;-78
2022/11/17 08:17:16;;;;;;;5.50;5.00;;;;;;;;;;4996670;28;20407;-78
2022/11/17 08:19:42;;;;;;;5.17;4.60;;;;;;;;;;5011602;28;20629;-78
2022/11/17 08:22:08;;;;;;;5.97;5.37;;;;;;;;;;5001217;28;20234;-78
2022/11/17 08:24:34;;;;;;;5.77;5.27;;;;;;;;;;5007647;28;20214;-78
2022/11/17 08:27:00;;;;;;;5.73;5.23;;;;;;;;;;5014048;28;20188;-78
2022/11/17 08:29:26;;;;;;;5.80;5.20;;;;;;;;;;5009368;28;20242;-78
2022/11/17 08:31:52;;;;;;;6.67;5.73;;;;;;;;;;4996496;28;20175;-78
2022/11/17 08:34:18;;;;;;;6.23;5.63;;;;;;;;;;5014205;28;20175;-77
2022/11/17 08:36:44;;;;;;;7.27;6.53;;;;;;;;;;5001640;28;20220;-78
2022/11/17 08:39:10;;;;;;;6.20;5.57;;;;;;;;;;5001672;28;20348;-77
2022/11/17 08:41:36;;;;;;;7.60;6.10;;;;;;;;;;5006619;28;20183;-77
2022/11/17 08:44:02;;;;;;;6.60;6.00;;;;;;;;;;5013658;28;20170;-78
2022/11/17 08:46:28;;;;;;;6.10;5.50;;;;;;;;;;5014169;28;20636;-78
2022/11/17 08:48:54;;;;;;;7.57;6.00;;;;;;;;;;5013110;28;20561;-77
2022/11/17 08:51:20;;;;;;;6.27;5.67;;;;;;;;;;5006347;28;20187;-77
2022/11/17 08:53:46;;;;;;;5.97;5.37;;;;;;;;;;5015358;28;20271;-77
2022/11/17 08:56:13;;;;;;;6.07;5.47;;;;;;;;;;5019003;28;20179;-77
2022/11/17 08:58:43;;;;;;;5.80;5.20;;;;;;;;;;5017932;28;20265;-78
2022/11/17 09:01:17;;;;;;;6.90;5.57;;;;;;;;;;5019561;28;20217;-78
2022/11/17 09:03:44;;;;;;;6.50;5.80;;;;;;;;;;5000266;28;20198;-77
2022/11/17 09:06:11;;;;;;;7.07;5.27;;;;;;;;;;5018762;28;20215;-76
2022/11/17 09:08:37;;;;;;;6.00;5.40;;;;;;;;;;5000324;28;20183;-77
2022/11/17 09:11:07;;;;;;;7.70;5.60;;;;;;;;;;5019790;28;20179;-77
2022/11/17 09:13:34;;;;;;;5.53;5.03;;;;;;;;;;4988536;28;20302;-77
2022/11/17 09:16:01;;;;;;;6.47;5.83;;;;;;;;;;5016397;28;20196;-77
2022/11/17 09:18:27;;;;;;;7.87;6.27;;;;;;;;;;4989498;28;20211;-77
2022/11/17 09:20:58;;;;;;;6.27;5.63;;;;;;;;;;5018585;28;20244;-76
2022/11/17 09:23:24;;;;;;;9.23;6.00;;;;;;;;;;4990746;28;20538;-77
2022/11/17 09:25:50;;;;;;;6.50;5.80;;;;;;;;;;5010396;28;20175;-77
2022/11/17 09:28:16;;;;;;;6.10;5.50;;;;;;;;;;5010286;28;20191;-77
2022/11/17 09:30:42;;;;;;;9.00;6.57;;;;;;;;;;4998567;28;20179;-77
2022/11/17 09:33:08;;;;;;;7.23;6.53;;;;;;;;;;5016445;28;20191;-78
2022/11/17 09:35:34;;;;;;;7.20;6.50;;;;;;;;;;4991411;28;20639;-77
2022/11/17 09:38:00;;;;;;;7.37;6.50;;;;;;;;;;4989871;28;20215;-77
2022/11/17 09:40:27;;;;;;;7.73;6.77;;;;;;;;;;4990667;28;20182;-77
2022/11/17 09:42:53;;;;;;;7.80;7.00;;;;;;;;;;4988402;28;20192;-78
2022/11/17 09:45:25;;;;;;;7.70;6.93;;;;;;;;;;5013839;28;20234;-78
2022/11/17 09:48:10;;;;;;;8.57;6.97;;;;;;;;;;4998860;28;20191;-77
2022/11/17 09:50:36;;;;;;;8.77;7.00;;;;;;;;;;5015750;28;20277;-78
2022/11/17 09:53:18;;;;;;;12.57;8.40;;;;;;;;;;4987541;28;20176;-78
2022/11/17 09:55:45;;;;;;;10.00;8.00;;;;;;;;;;4998246;28;20187;-76
2022/11/17 09:58:38;;;;;;;8.60;7.70;;;;;;;;;;5000803;28;20654;-77
2022/11/17 10:01:04;;;;;;;9.97;7.83;;;;;;;;;;4947750;28;20201;-78
2022/11/17 10:03:31;;;;;;;9.27;7.40;;;;;;;;;;4949271;28;20236;-77
2022/11/17 10:05:58;;;;;;;11.93;8.57;;;;;;;;;;4948558;28;20223;-77
2022/11/17 10:08:36;;;;;;;10.40;8.57;;;;;;;;;;4940742;29;20204;-77
2022/11/17 10:11:30;;;;;;;9.90;8.07;;;;;;;;;;4933253;28;20232;-78
2022/11/17 10:13:49;;;;;;;9.03;8.10;;;;;;;;;;4949906;29;20548;-78
2022/11/17 10:16:15;;;;;;;9.73;8.50;;;;;;;;;;4942897;29;20271;-78
2022/11/17 10:18:41;;;;;;;10.57;7.93;;;;;;;;;;4941549;28;20221;-78
2022/11/17 10:21:08;;;;;;;8.77;7.80;;;;;;;;;;4947461;29;20228;-78
2022/11/17 10:23:35;;;;;;;9.27;8.20;;;;;;;;;;4939711;29;20208;-77
2022/11/17 10:26:07;;;;;;;9.50;8.10;;;;;;;;;;4949254;28;20737;-76
2022/11/17 10:28:33;;;;;;;9.57;8.47;;;;;;;;;;4949784;29;20200;-77
2022/11/17 10:31:04;;;;;;;9.33;7.67;;;;;;;;;;4927556;29;20284;-78
2022/11/17 10:33:36;;;;;;;8.63;7.73;;;;;;;;;;4947631;28;20732;-77
2022/11/17 10:36:03;;;;;;;10.53;7.90;;;;;;;;;;4948209;28;20184;-76
2022/11/17 10:38:32;;;;;;;9.30;8.30;;;;;;;;;;4961886;28;20359;-77
2022/11/17 10:41:00;;;;;;;9.43;8.43;;;;;;;;;;4996551;28;20267;-76
2022/11/17 10:43:36;;;;;;;8.97;8.07;;;;;;;;;;4989111;28;20584;-76
2022/11/17 10:46:12;;;;;;;10.87;8.30;;;;;;;;;;4982371;28;20668;-77
2022/11/17 10:48:39;;;;;;;8.77;7.87;;;;;;;;;;4971586;28;20191;-77
2022/11/17 10:51:18;;;;;;;8.57;7.60;;;;;;;;;;4971934;28;20180;-77
2022/11/17 10:53:59;;;;;;;9.57;8.20;;;;;;;;;;4987090;28;20203;-77
2022/11/17 10:56:25;;;;;;;9.50;8.50;;;;;;;;;;4965278;28;20198;-77
2022/11/17 10:58:56;;;;;;;9.30;7.93;;;;;;;;;;4965583;28;20184;-77
2022/11/17 11:01:51;;;;;;;9.20;8.23;;;;;;;;;;4991337;28;20183;-77
2022/11/17 11:04:29;;;;;;;9.63;8.60;;;;;;;;;;4977383;28;20203;-77
2022/11/17 11:07:12;;;;;;;11.37;9.57;;;;;;;;;;4988345;28;20226;-77
2022/11/17 11:09:44;;;;;;;11.77;8.67;;;;;;;;;;4980622;28;20188;-78
2022/11/17 11:12:14;;;;;;;10.53;9.43;;;;;;;;;;4966372;28;20702;-77
2022/11/17 11:14:43;;;;;;;11.87;8.70;;;;;;;;;;4984212;28;20233;-77
2022/11/17 11:17:13;;;;;;;12.03;9.00;;;;;;;;;;4992501;28;20270;-76
2022/11/17 11:19:40;;;;;;;11.37;9.40;;;;;;;;;;4985459;28;20694;-76
2022/11/17 11:22:06;;;;;;;9.00;8.10;;;;;;;;;;4986639;28;20226;-77
2022/11/17 11:24:39;;;;;;;10.50;9.23;;;;;;;;;;5010707;28;20196;-76
2022/11/17 11:27:31;;;;;;;10.90;9.07;;;;;;;;;;5016551;28;20187;-75
2022/11/17 11:30:02;;;;;;;10.03;9.03;;;;;;;;;;5001773;28;20179;-77
2022/11/17 11:32:31;;;;;;;10.53;9.43;;;;;;;;;;5017526;28;20183;-77
2022/11/17 11:35:16;;;;;;;11.87;10.67;;;;;;;;;;5017578;28;20692;-77
2022/11/17 11:38:02;;;;;;;11.77;9.87;;;;;;;;;;5003558;28;20222;-77
2022/11/17 11:40:39;;;;;;;13.23;10.60;;;;;;;;;;5012884;28;20194;-77
2022/11/17 11:43:24;;;;;;;10.93;9.73;;;;;;;;;;5001718;28;20237;-77
2022/11/17 11:45:58;;;;;;;10.60;9.23;;;;;;;;;;5001360;28;20190;-76
2022/11/17 11:48:30;;;;;;;11.77;9.50;;;;;;;;;;5012042;28;20198;-77
2022/11/17 11:50:59;;;;;;;12.33;10.10;;;;;;;;;;5002173;28;20187;-76
2022/11/17 11:53:41;;;;;;;9.97;8.97;;;;;;;;;;5001487;28;20189;-76
2022/11/17 11:56:12;;;;;;;12.17;9.20;;;;;;;;;;5001198;28;20186;-76
2022/11/17 11:58:42;;;;;;;10.93;9.73;;;;;;;;;;5013135;28;20217;-76
2022/11/17 12:01:10;;;;;;;10.17;9.13;;;;;;;;;;5000576;28;20269;-77
2022/11/17 12:03:48;;;;;;;10.47;9.27;;;;;;;;;;5000742;28;20183;-76
2022/11/17 12:09:14;;;;;;;10.03;9.00;;;;;;;;;;5011934;28;20705;-77
2022/11/17 12:12:02;;;;;;;9.37;8.20;;;;;;;;;;5011524;28;20190;-76
2022/11/17 12:14:31;;;;;;;10.27;9.00;;;;;;;;;;5010178;28;20736;-76
2022/11/17 12:17:00;;;;;;;10.27;8.70;;;;;;;;;;5001866;28;20207;-77
2022/11/17 12:19:45;;;;;;;9.30;8.40;;;;;;;;;;5000775;28;20179;-76
2022/11/17 12:22:23;;;;;;;9.63;8.63;;;;;;;;;;5018328;28;20277;-76
2022/11/17 12:24:55;;;;;;;9.63;8.63;;;;;;;;;;5002596;28;20191;-77
2022/11/17 12:27:31;;;;;;;9.57;8.57;;;;;;;;;;5019114;28;20242;-76
2022/11/17 12:29:57;;;;;;;10.77;8.27;;;;;;;;;;5002738;28;20185;-77
2022/11/17 12:32:46;;;;;;;10.20;8.73;;;;;;;;;;5020658;28;20274;-77
2022/11/17 12:35:22;;;;;;;9.30;8.40;;;;;;;;;;5011074;28;20569;-77
2022/11/17 12:37:48;;;;;;;10.87;9.03;;;;;;;;;;5004151;28;20217;-77
2022/11/17 12:40:33;;;;;;;10.50;8.40;;;;;;;;;;5002052;28;20758;-77
2022/11/17 12:43:14;;;;;;;10.60;8.60;;;;;;;;;;5019092;28;20812;-76
2022/11/17 12:45:52;;;;;;;10.20;7.90;;;;;;;;;;5018936;28;20191;-76
2022/11/17 12:48:23;;;;;;;9.60;8.60;;;;;;;;;;5019642;28;20530;-77
2022/11/17 12:51:07;;;;;;;10.10;8.50;;;;;;;;;;5003084;28;20277;-77
2022/11/17 12:53:36;;;;;;;8.83;7.93;;;;;;;;;;5002375;28;20647;-76
2022/11/17 12:56:06;;;;;;;8.50;7.70;;;;;;;;;;5019156;28;20182;-79
2022/11/17 12:58:35;;;;;;;8.23;7.37;;;;;;;;;;5019063;28;20708;-77
2022/11/17 13:01:08;;;;;;;11.23;8.37;;;;;;;;;;5019174;28;20185;-76
2022/11/17 13:03:43;;;;;;;10.30;8.70;;;;;;;;;;5019937;28;20362;-77
2022/11/17 13:06:11;;;;;;;9.93;8.93;;;;;;;;;;5003413;28;20194;-77
2022/11/17 13:08:37;;;;;;;10.57;8.60;;;;;;;;;;5002873;28;20186;-76
2022/11/17 13:11:11;;;;;;;11.20;8.83;;;;;;;;;;5002892;28;20186;-77
2022/11/17 13:13:37;;;;;;;9.37;8.40;;;;;;;;;;5020189;28;20172;-76
2022/11/17 13:16:04;;;;;;;10.63;8.33;;;;;;;;;;5002814;28;20555;-77
2022/11/17 13:18:30;;;;;;;10.53;7.90;;;;;;;;;;5019416;28;20214;-77
2022/11/17 13:20:56;;;;;;;8.47;7.60;;;;;;;;;;5001576;28;20317;-76
2022/11/17 13:23:24;;;;;;;9.60;7.80;;;;;;;;;;5002046;28;20192;-76
2022/11/17 13:25:51;;;;;;;8.50;7.53;;;;;;;;;;5020531;28;20555;-77
2022/11/17 13:28:27;;;;;;;9.70;8.03;;;;;;;;;;5001376;28;20253;-75
2022/11/17 13:30:53;;;;;;;10.10;8.10;;;;;;;;;;5000538;28;20241;-77
2022/11/17 13:33:21;;;;;;;11.47;8.47;;;;;;;;;;5001385;28;20194;-76
2022/11/17 13:35:50;;;;;;;9.40;7.60;;;;;;;;;;5001155;28;20565;-77
2022/11/17 13:38:20;;;;;;;9.43;7.87;;;;;;;;;;5001989;28;20211;-76
2022/11/17 13:40:47;;;;;;;7.87;6.87;;;;;;;;;;5003073;28;20233;-76
2022/11/17 13:43:21;;;;;;;8.33;7.43;;;;;;;;;;5020019;28;20194;-77
2022/11/17 13:45:48;;;;;;;8.40;7.53;;;;;;;;;;5019172;28;20268;-76
2022/11/17 13:48:34;;;;;;;8.90;7.30;;;;;;;;;;5020830;28;20193;-77
2022/11/17 13:51:17;;;;;;;7.43;6.73;;;;;;;;;;5017104;28;20666;-78
2022/11/17 13:53:44;;;;;;;9.90;7.93;;;;;;;;;;5017351;28;20191;-76
2022/11/17 13:56:20;;;;;;;9.40;7.70;;;;;;;;;;5017659;28;20175;-76
2022/11/17 13:58:47;;;;;;;12.37;9.57;;;;;;;;;;4997107;28;20662;-76
2022/11/17 14:01:14;;;;;;;9.83;8.03;;;;;;;;;;5016529;28;20274;-76
2022/11/17 14:03:41;;;;;;;10.10;8.07;;;;;;;;;;5016783;28;20190;-78
2022/11/17 14:06:08;;;;;;;8.97;7.60;;;;;;;;;;5018456;28;20187;-76
2022/11/17 14:08:35;;;;;;;9.60;7.60;;;;;;;;;;4998589;28;20243;-76
2022/11/17 14:11:06;;;;;;;8.90;7.60;;;;;;;;;;5019685;28;20179;-77
2022/11/17 14:13:37;;;;;;;9.10;7.83;;;;;;;;;;5017182;28;20191;-78
2022/11/17 14:16:03;;;;;;;9.93;8.23;;;;;;;;;;5015789;28;20218;-79
2022/11/17 14:18:33;;;;;;;9.57;8.13;;;;;;;;;;4999604;28;20219;-77
2022/11/17 14:21:16;;;;;;;9.23;8.27;;;;;;;;;;5015934;28;20218;-77
2022/11/17 14:23:42;;;;;;;9.80;7.80;;;;;;;;;;4997614;28;20190;-78
2022/11/17 14:26:19;;;;;;;13.60;10.43;;;;;;;;;;5012813;28;20209;-78
2022/11/17 14:28:45;;;;;;;13.40;9.97;;;;;;;;;;5003570;28;20182;-78
2022/11/17 14:31:12;;;;;;;14.27;10.20;;;;;;;;;;4994085;28;20549;-76
2022/11/17 14:33:38;;;;;;;14.43;10.63;;;;;;;;;;4992495;28;20574;-78
2022/11/17 14:36:05;;;;;;;15.17;10.97;;;;;;;;;;5002603;28;20249;-78
2022/11/17 14:38:31;;;;;;;14.40;10.53;;;;;;;;;;5015271;28;20360;-76
2022/11/17 14:40:57;;;;;;;15.70;10.80;;;;;;;;;;4999071;28;20209;-78
2022/11/17 14:43:23;;;;;;;15.23;10.67;;;;;;;;;;4999837;28;20190;-76
2022/11/17 14:45:49;;;;;;;16.00;9.93;;;;;;;;;;5014546;28;20193;-77
2022/11/17 14:48:16;;;;;;;12.20;10.13;;;;;;;;;;5001241;28;20347;-77
2022/11/17 14:50:42;;;;;;;12.70;9.67;;;;;;;;;;5003981;28;20650;-78
2022/11/17 14:53:08;;;;;;;13.10;9.67;;;;;;;;;;5020302;28;20185;-77
2022/11/17 14:55:34;;;;;;;13.63;9.67;;;;;;;;;;5003554;28;20285;-78
2022/11/17 14:58:00;;;;;;;11.70;9.57;;;;;;;;;;5001265;28;20209;-78
2022/11/17 15:00:26;;;;;;;13.23;9.60;;;;;;;;;;5002285;28;20189;-77
2022/11/17 15:02:53;;;;;;;13.47;9.83;;;;;;;;;;5018906;28;20196;-77
2022/11/17 15:05:19;;;;;;;13.53;9.77;;;;;;;;;;4999634;28;20214;-77
2022/11/17 15:07:45;;;;;;;11.27;9.40;;;;;;;;;;5022467;28;20193;-77
2022/11/17 15:10:11;;;;;;;15.87;9.63;;;;;;;;;;5002053;28;20527;-77
2022/11/17 15:12:37;;;;;;;14.10;10.50;;;;;;;;;;5017034;28;20186;-77
2022/11/17 15:15:03;;;;;;;19.27;12.77;;;;;;;;;;5019042;28;20258;-77
2022/11/17 15:17:30;;;;;;;20.93;14.20;;;;;;;;;;5012977;28;20209;-77
2022/11/17 15:19:56;;;;;;;24.43;15.93;;;;;;;;;;5012685;28;20183;-77
2022/11/17 15:22:22;;;;;;;31.20;19.07;;;;;;;;;;5002724;28;20222;-77
2022/11/17 15:24:48;;;;;;;26.03;17.57;;;;;;;;;;5018348;28;20181;-77